Time;durP1;ratioP1;P1;durP2;ratioP2;P2;SDS_P1;SDS_P2;PMS_P1;PMS_P2;Temp;Humidity;BMP_temperature;BMP_pressure;BME280_temperature;BME280_humidity;BME280_pressure;Samples;Min_cycle;Max_cycle;Signal;HPM_P1;HPM_P2
2024/02/17 00:00:43;;;;;;;13.47;5.27;;;14.10;99.90;;;14.08;64.81;101992.09;5959121;22;111201;-47
2024/02/17 00:03:13;;;;;;;9.17;4.87;;;14.10;99.90;;;14.05;64.87;102000.16;6060500;22;106323;-43
2024/02/17 00:05:42;;;;;;;8.70;4.73;;;14.10;99.90;;;14.09;64.67;102001.78;6007827;22;99533;-40
2024/02/17 00:08:08;;;;;;;8.90;5.10;;;14.10;99.90;;;14.11;64.91;102010.56;5926431;22;97583;-46
2024/02/17 00:10:45;;;;;;;9.37;4.53;;;14.10;99.90;;;14.15;65.07;102012.22;5941481;22;104435;-43
2024/02/17 00:13:10;;;;;;;9.73;5.43;;;14.10;99.90;;;14.14;65.35;102013.13;5996429;22;98229;-43
2024/02/17 00:15:39;;;;;;;10.23;4.50;;;14.10;99.90;;;14.17;65.17;102013.03;5947716;22;98522;-48
2024/02/17 00:18:10;;;;;;;8.27;5.00;;;14.20;99.90;;;14.20;65.13;102015.63;6067189;22;98364;-43
2024/02/17 00:20:39;;;;;;;8.07;4.43;;;14.10;99.90;;;14.28;65.08;102018.91;5920863;22;97604;-41
2024/02/17 00:23:07;;;;;;;7.63;4.00;;;14.20;99.90;;;14.24;64.65;102023.44;5952711;22;98823;-40
2024/02/17 00:25:33;;;;;;;8.77;4.63;;;14.20;99.90;;;14.20;64.60;102024.47;6023094;22;98692;-43
2024/02/17 00:28:04;;;;;;;5.93;3.97;;;14.20;99.90;;;14.25;64.29;102030.50;6046448;22;116690;-42
2024/02/17 00:30:43;;;;;;;9.20;4.77;;;14.20;99.90;;;14.23;65.28;102026.16;5889134;22;97994;-50
2024/02/17 00:33:09;;;;;;;9.60;5.10;;;14.20;99.90;;;14.18;64.65;102028.06;5986529;22;98806;-43
2024/02/17 00:35:37;;;;;;;12.17;5.67;;;14.20;99.90;;;14.19;65.14;102030.69;5845533;22;128205;-42
2024/02/17 00:38:05;;;;;;;10.57;4.83;;;14.10;99.90;;;14.11;65.04;102039.75;5933625;22;112419;-42
2024/02/17 00:40:36;;;;;;;10.87;5.40;;;14.10;99.90;;;14.26;64.37;102036.66;5989287;22;97815;-42
2024/02/17 00:43:02;;;;;;;9.10;5.20;;;14.20;99.90;;;14.32;64.20;102038.25;5890051;22;100210;-41
2024/02/17 00:45:29;;;;;;;10.37;5.10;;;14.30;99.90;;;14.26;64.66;102034.00;5896353;22;98574;-42
2024/02/17 00:47:58;;;;;;;10.57;5.33;;;14.20;99.90;;;14.29;64.06;102041.88;6062713;22;98171;-44
2024/02/17 00:50:26;;;;;;;11.40;5.17;;;14.20;99.90;;;14.27;64.55;102035.75;5902486;22;116426;-43
2024/02/17 00:53:02;;;;;;;10.73;5.17;;;14.20;99.90;;;14.22;63.97;102053.59;5912565;23;124242;-45
2024/02/17 00:55:30;;;;;;;13.07;5.73;;;14.20;99.90;;;14.19;64.34;102048.38;5850998;22;100660;-43
2024/02/17 00:58:06;;;;;;;;;;;;;;;;;;;;;
2024/02/17 01:00:34;;;;;;;12.13;5.40;;;14.10;99.90;;;14.30;64.47;102054.22;6037630;22;117849;-44
2024/02/17 01:03:05;;;;;;;9.47;5.50;;;14.20;99.90;;;14.30;63.91;102059.53;6000965;22;102479;-43
2024/02/17 01:05:38;;;;;;;11.90;5.50;;;14.20;99.90;;;14.24;63.95;102059.72;6048248;22;99562;-43
2024/02/17 01:08:07;;;;;;;9.43;5.03;;;14.20;99.90;;;14.21;64.24;102065.13;5909307;22;100808;-44
2024/02/17 01:10:33;;;;;;;9.20;5.80;;;14.10;99.90;;;14.19;64.14;102057.22;5992526;22;98108;-43
2024/02/17 01:13:10;;;;;;;12.47;7.10;;;14.10;99.90;;;14.18;64.67;102060.78;5912596;23;119937;-43
2024/02/17 01:15:44;;;;;;;9.80;5.90;;;14.10;99.90;;;14.28;64.44;102066.69;6056495;22;97542;-43
2024/02/17 01:18:11;;;;;;;13.20;5.97;;;14.10;99.90;;;14.33;64.31;102064.78;6016492;22;97448;-46
2024/02/17 01:20:42;;;;;;;11.50;6.23;;;14.20;99.90;;;14.25;64.68;102072.94;5991410;22;97220;-43
2024/02/17 01:23:11;;;;;;;12.43;6.47;;;14.20;99.90;;;14.33;64.53;102075.41;5964579;22;97883;-44
2024/02/17 01:25:37;;;;;;;14.60;6.17;;;14.20;99.90;;;14.45;64.07;102080.38;5893991;23;97941;-43
2024/02/17 01:28:03;;;;;;;11.80;6.53;;;14.30;99.90;;;14.52;63.13;102076.63;5941102;22;97778;-42
2024/02/17 01:30:28;;;;;;;13.37;6.97;;;14.50;99.90;;;14.68;63.42;102076.16;5908802;22;97873;-43
2024/02/17 01:32:57;;;;;;;14.67;7.47;;;14.60;99.90;;;14.74;62.32;102075.97;5998369;22;123673;-43
2024/02/17 01:35:37;;;;;;;16.17;7.07;;;14.70;99.90;;;14.90;62.87;102071.94;5918206;22;101025;-42
2024/02/17 01:38:07;;;;;;;17.00;7.57;;;14.80;99.90;;;14.76;62.84;102079.47;6016532;22;97918;-44
2024/02/17 01:40:40;;;;;;;13.57;6.93;;;14.70;99.90;;;14.87;61.98;102082.66;5803254;23;97970;-44
2024/02/17 01:43:25;;;;;;;16.10;6.40;;;14.80;99.90;;;14.92;62.45;102086.06;5914633;23;100440;-43
2024/02/17 01:45:51;;;;;;;13.17;6.37;;;14.80;99.90;;;14.93;61.30;102093.09;5994335;22;101664;-42
2024/02/17 01:48:19;;;;;;;17.67;7.70;;;14.90;99.90;;;14.81;62.23;102090.81;5967571;22;97780;-41
2024/02/17 01:50:50;;;;;;;18.67;8.23;;;14.80;99.90;;;14.75;62.45;102096.31;5886277;23;97472;-42
2024/02/17 01:53:16;;;;;;;12.10;6.83;;;14.70;99.90;;;14.64;62.91;102103.75;5985153;22;104824;-43
2024/02/17 01:55:44;;;;;;;17.37;7.37;;;14.60;99.90;;;14.63;62.91;102099.34;5926777;22;109374;-44
2024/02/17 01:58:14;;;;;;;13.80;7.83;;;14.60;99.90;;;14.79;62.61;102100.63;6015228;22;109953;-44
2024/02/17 02:00:42;;;;;;;15.90;7.37;;;14.70;99.90;;;14.67;62.59;102106.31;5868440;22;97824;-39
2024/02/17 02:03:08;;;;;;;13.53;7.43;;;14.60;99.90;;;14.68;63.00;102103.59;5977129;22;99446;-45
2024/02/17 02:05:50;;;;;;;16.80;6.80;;;14.60;99.90;;;14.62;62.80;102108.25;5963726;22;99858;-39
2024/02/17 02:08:19;;;;;;;17.10;7.50;;;14.50;99.90;;;14.55;63.22;102108.41;5879916;22;100862;-43
2024/02/17 02:10:45;;;;;;;16.83;7.73;;;14.40;99.90;;;14.66;63.20;102104.56;5957106;22;97915;-42
2024/02/17 02:13:18;;;;;;;16.23;7.67;;;14.50;99.90;;;14.53;63.20;102107.56;5906562;22;98909;-40
2024/02/17 02:15:47;;;;;;;16.50;8.03;;;14.40;99.90;;;14.56;63.24;102110.13;5977693;22;110288;-43
2024/02/17 02:18:15;;;;;;;13.87;6.50;;;14.40;99.90;;;14.53;63.78;102110.22;6025653;22;97871;-43
2024/02/17 02:20:44;;;;;;;12.83;8.03;;;14.40;99.90;;;14.54;63.99;102116.41;5906117;22;98690;-41
2024/02/17 02:23:12;;;;;;;14.87;7.83;;;14.40;99.90;;;14.45;64.58;102117.53;5887568;23;98321;-42
2024/02/17 02:25:55;;;;;;;16.30;7.77;;;14.40;99.90;;;14.40;65.13;102118.56;5876146;22;98011;-42
2024/02/17 02:28:31;;;;;;;20.70;7.97;;;14.30;99.90;;;14.36;65.69;102112.47;5918568;22;100069;-42
2024/02/17 02:30:59;;;;;;;17.47;7.73;;;14.20;99.90;;;14.27;65.88;102121.56;5917291;22;98694;-42
2024/02/17 02:33:38;;;;;;;13.87;7.93;;;14.10;99.90;;;14.22;65.76;102120.81;5869570;22;101487;-44
2024/02/17 02:36:20;;;;;;;18.90;8.23;;;14.10;99.90;;;14.18;65.67;102124.47;6051492;22;98175;-44
2024/02/17 02:38:56;;;;;;;14.97;7.47;;;14.10;99.90;;;14.14;66.22;102121.94;5833782;22;101000;-43
2024/02/17 02:41:27;;;;;;;16.53;7.90;;;14.00;99.90;;;14.15;65.94;102121.00;5970525;22;100174;-47
2024/02/17 02:43:53;;;;;;;16.00;7.47;;;14.00;99.90;;;14.13;65.99;102126.38;5973304;22;111540;-44
2024/02/17 02:47:01;;;;;;;;;;;;;;;;;;;;;
2024/02/17 02:49:44;;;;;;;16.60;7.57;;;14.00;99.90;;;14.14;66.02;102132.53;5766877;22;120624;-41
2024/02/17 02:52:52;;;;;;;;;;;;;;;;;;;;;
2024/02/17 02:55:37;;;;;;;12.73;7.17;;;14.00;99.90;;;14.08;66.22;102135.38;5775920;22;102409;-44
2024/02/17 02:58:16;;;;;;;18.23;8.10;;;14.00;99.90;;;14.08;66.41;102153.94;5658034;22;98950;-43
2024/02/17 03:04:01;;;;;;;17.10;6.40;;;13.90;99.90;;;14.04;66.68;102152.31;5806759;22;98153;-40
2024/02/17 03:06:37;;;;;;;15.00;7.50;;;13.90;99.90;;;14.03;67.05;102155.84;5832930;22;97974;-49
2024/02/17 03:09:07;;;;;;;15.00;7.03;;;13.90;99.90;;;14.00;67.32;102152.34;5905446;22;97929;-47
2024/02/17 03:11:48;;;;;;;21.73;7.60;;;13.90;99.90;;;13.98;67.76;102151.53;5829908;22;107103;-43
2024/02/17 03:14:18;;;;;;;17.93;8.30;;;13.80;99.90;;;13.97;67.84;102160.41;5891088;22;97421;-43
2024/02/17 03:16:49;;;;;;;14.60;7.10;;;13.80;99.90;;;14.00;68.14;102167.41;5783746;22;102743;-43
2024/02/17 03:19:22;;;;;;;14.93;7.87;;;13.80;99.90;;;13.97;67.94;102156.88;5818970;22;109589;-39
2024/02/17 03:21:50;;;;;;;13.83;7.77;;;13.80;99.90;;;13.97;67.90;102173.66;5841281;22;101196;-45
2024/02/17 03:24:20;;;;;;;14.60;8.13;;;13.80;99.90;;;13.94;68.53;102172.88;5876780;22;101736;-43
2024/02/17 03:27:00;;;;;;;17.87;7.37;;;13.80;99.90;;;13.92;68.66;102175.56;5928862;22;103676;-40
2024/02/17 03:29:47;;;;;;;13.63;7.57;;;13.80;99.90;;;13.93;67.96;102179.97;5874192;22;98939;-44
2024/02/17 03:32:34;;;;;;;14.00;6.67;;;13.80;99.90;;;13.90;67.97;102181.84;5934482;22;97475;-42
2024/02/17 03:35:22;;;;;;;12.33;7.00;;;13.80;99.90;;;13.86;68.84;102191.63;5779038;22;98059;-43
2024/02/17 03:37:58;;;;;;;13.93;7.67;;;13.70;99.90;;;13.85;68.83;102186.38;5772924;22;104792;-42
2024/02/17 03:40:38;;;;;;;14.47;8.13;;;13.70;99.90;;;13.85;68.95;102194.31;5985670;22;102931;-44
2024/02/17 03:43:19;;;;;;;12.50;6.77;;;13.70;99.90;;;13.83;68.91;102197.03;6007544;22;97294;-39
2024/02/17 03:46:04;;;;;;;14.63;6.87;;;13.70;99.90;;;13.81;68.74;102198.84;5854496;22;97446;-44
2024/02/17 03:48:39;;;;;;;17.53;7.57;;;13.60;99.90;;;13.78;68.85;102198.94;5926221;22;105761;-43
2024/02/17 03:51:04;;;;;;;13.83;7.13;;;13.60;99.90;;;13.79;69.38;102210.41;5982284;22;111599;-39
2024/02/17 03:53:35;;;;;;;13.37;7.57;;;13.60;99.90;;;13.80;69.06;102218.31;5838400;22;99716;-44
2024/02/17 03:56:29;;;;;;;15.83;7.03;;;13.60;99.90;;;13.80;69.09;102217.44;5931557;22;99938;-43
2024/02/17 03:59:17;;;;;;;13.33;7.00;;;13.70;99.90;;;13.80;69.51;102226.28;5919144;22;101675;-44
2024/02/17 04:01:43;;;;;;;14.10;7.47;;;13.60;99.90;;;13.72;69.73;102228.22;6054068;22;112151;-42
2024/02/17 04:04:09;;;;;;;19.07;7.17;;;13.60;99.90;;;13.73;69.82;102237.06;6007241;22;112882;-44
2024/02/17 04:06:40;;;;;;;15.37;7.20;;;13.60;99.90;;;13.72;69.67;102235.31;5892816;22;117263;-44
2024/02/17 04:09:09;;;;;;;15.83;7.23;;;13.60;99.90;;;13.68;68.91;102234.53;5946412;22;101823;-41
2024/02/17 04:11:51;;;;;;;14.50;6.40;;;13.60;99.90;;;13.69;69.03;102246.88;6105819;22;127437;-42
2024/02/17 04:14:30;;;;;;;16.30;7.47;;;13.60;99.90;;;13.71;69.16;102255.66;5819614;22;97567;-44
2024/02/17 04:17:18;;;;;;;12.57;6.43;;;13.60;99.90;;;13.73;68.72;102251.19;5904977;22;97617;-39
2024/02/17 04:19:51;;;;;;;9.83;5.80;;;13.70;99.90;;;13.93;67.74;102256.91;5735267;23;97665;-47
2024/02/17 04:22:26;;;;;;;18.10;6.87;;;13.70;99.90;;;13.90;67.54;102257.00;5828184;22;113467;-47
2024/02/17 04:25:07;;;;;;;12.27;5.03;;;13.80;99.90;;;14.11;66.43;102270.63;5763619;22;97788;-40
2024/02/17 04:27:41;;;;;;;9.80;5.13;;;13.90;99.90;;;14.01;66.58;102267.31;5797030;23;99020;-41
2024/02/17 04:30:21;;;;;;;11.00;5.80;;;13.90;99.90;;;13.94;66.67;102271.91;5997818;22;104087;-44
2024/02/17 04:32:59;;;;;;;6.30;4.27;;;13.90;99.90;;;14.10;66.56;102279.50;5820002;22;103359;-42
2024/02/17 04:35:28;;;;;;;10.27;4.87;;;13.90;99.90;;;14.17;65.62;102275.75;5852335;22;110060;-43
2024/02/17 04:37:57;;;;;;;9.43;4.47;;;14.10;99.90;;;14.15;66.26;102280.25;5870359;23;99724;-48
2024/02/17 04:40:47;;;;;;;11.40;4.77;;;14.00;99.90;;;14.13;66.01;102284.72;5908427;22;118650;-44
2024/02/17 04:43:31;;;;;;;10.13;4.73;;;14.00;99.90;;;14.05;66.23;102292.00;5991441;22;99648;-41
2024/02/17 04:46:05;;;;;;;10.00;5.30;;;14.00;99.90;;;14.16;65.87;102289.94;6049794;22;98866;-38
2024/02/17 04:48:37;;;;;;;14.37;5.10;;;14.00;99.90;;;14.36;65.07;102289.47;5960053;22;97455;-43
2024/02/17 04:51:09;;;;;;;11.90;4.93;;;14.20;99.90;;;14.32;64.31;102296.66;5991718;22;98116;-44
2024/02/17 04:53:43;;;;;;;7.53;4.13;;;14.20;99.90;;;14.43;64.58;102305.19;5971590;22;98128;-44
2024/02/17 04:56:12;;;;;;;9.57;4.97;;;14.20;99.90;;;14.56;64.22;102296.03;5954855;22;104050;-42
2024/02/17 04:58:37;;;;;;;14.87;5.13;;;14.30;99.90;;;14.53;64.53;102304.06;5928814;22;118087;-43
2024/02/17 05:01:22;;;;;;;12.60;5.10;;;14.30;99.90;;;14.58;63.89;102304.81;5858206;23;98380;-45
2024/02/17 05:03:56;;;;;;;9.90;5.00;;;14.40;99.90;;;14.68;63.66;102300.16;6064241;22;103418;-40
2024/02/17 05:06:39;;;;;;;7.80;4.50;;;14.40;99.90;;;14.50;64.02;102301.50;5916593;22;100504;-43
2024/02/17 05:09:13;;;;;;;9.67;4.17;;;14.30;99.90;;;14.66;63.70;102306.41;5876171;23;109330;-44
2024/02/17 05:11:55;;;;;;;8.87;4.63;;;14.40;99.90;;;14.59;63.53;102317.19;5917758;22;101117;-45
2024/02/17 05:14:44;;;;;;;10.83;5.57;;;14.40;99.90;;;14.74;63.29;102315.03;5957250;22;101701;-43
2024/02/17 05:17:11;;;;;;;9.03;3.97;;;14.50;99.90;;;14.83;62.95;102320.09;5949657;22;98821;-44
2024/02/17 05:19:48;;;;;;;7.70;4.43;;;14.60;99.90;;;14.81;62.89;102325.47;5949417;22;100807;-42
2024/02/17 05:22:16;;;;;;;8.13;3.90;;;14.60;99.90;;;14.66;62.71;102323.22;5953373;22;99804;-41
2024/02/17 05:24:45;;;;;;;8.93;4.53;;;14.50;99.90;;;14.61;63.04;102330.44;5973203;22;99036;-43
2024/02/17 05:27:14;;;;;;;14.20;5.10;;;14.50;99.90;;;14.63;63.57;102325.97;5929338;22;109297;-41
2024/02/17 05:29:43;;;;;;;8.80;4.43;;;14.40;99.90;;;14.71;63.23;102336.38;6084700;22;97382;-39
2024/02/17 05:32:18;;;;;;;8.37;4.57;;;14.40;99.90;;;14.78;63.22;102340.63;5901706;22;97940;-43
2024/02/17 05:34:48;;;;;;;6.90;4.27;;;14.50;99.90;;;14.78;62.41;102341.50;6025680;22;97338;-45
2024/02/17 05:37:13;;;;;;;9.40;5.10;;;14.60;99.90;;;14.88;62.49;102350.06;6014132;22;101758;-44
2024/02/17 05:39:46;;;;;;;11.70;4.63;;;14.70;99.90;;;14.94;62.15;102352.59;5904144;22;100173;-43
2024/02/17 05:42:12;;;;;;;6.97;4.27;;;14.80;99.90;;;15.01;62.21;102346.16;6040076;22;99805;-43
2024/02/17 05:44:56;;;;;;;8.40;4.10;;;14.80;99.90;;;14.95;61.11;102354.31;5883618;22;97881;-40
2024/02/17 05:47:42;;;;;;;8.30;4.53;;;14.80;99.90;;;14.98;61.73;102356.88;5917051;22;99792;-41
2024/02/17 05:50:08;;;;;;;9.23;4.77;;;14.80;99.90;;;14.85;61.69;102360.78;5977168;22;97855;-42
2024/02/17 05:52:34;;;;;;;10.33;4.90;;;14.70;99.90;;;14.85;62.11;102366.09;5968059;22;99395;-44
2024/02/17 05:55:26;;;;;;;9.37;4.90;;;14.60;99.90;;;14.96;61.97;102366.69;5962436;22;125357;-42
2024/02/17 05:58:11;;;;;;;8.27;5.17;;;14.70;99.90;;;14.96;61.59;102361.38;5808751;22;97493;-46
2024/02/17 06:00:51;;;;;;;6.67;4.43;;;14.70;99.90;;;14.86;62.07;102368.72;6010289;22;122169;-43
2024/02/17 06:03:23;;;;;;;6.90;4.60;;;14.70;99.90;;;14.71;62.01;102368.25;6066795;22;101488;-46
2024/02/17 06:05:59;;;;;;;10.57;5.40;;;14.50;99.90;;;14.71;62.27;102368.25;5975607;22;103982;-43
2024/02/17 06:08:31;;;;;;;11.30;5.00;;;14.50;99.90;;;14.75;62.72;102369.91;5970558;22;99328;-43
2024/02/17 06:11:02;;;;;;;11.00;4.67;;;14.50;99.90;;;14.78;62.87;102372.50;6029370;22;118260;-44
2024/02/17 06:13:28;;;;;;;8.33;5.13;;;14.60;99.90;;;14.79;62.05;102368.94;6090377;22;98122;-41
2024/02/17 06:16:13;;;;;;;11.93;5.47;;;14.60;99.90;;;14.73;62.46;102372.59;6024427;22;98791;-44
2024/02/17 06:21:36;;;;;;;10.83;4.83;;;14.50;99.90;;;14.74;62.82;102384.97;6004458;22;97315;-44
2024/02/17 06:24:20;;;;;;;9.20;4.60;;;14.50;99.90;;;14.69;62.09;102391.31;5846523;22;129182;-41
2024/02/17 06:26:53;;;;;;;10.37;4.47;;;14.50;99.90;;;14.62;62.16;102395.06;6112204;22;99033;-40
2024/02/17 06:29:31;;;;;;;12.80;5.60;;;14.40;99.90;;;14.53;63.09;102401.47;6060821;22;97899;-41
2024/02/17 06:32:00;;;;;;;10.80;4.70;;;14.30;99.90;;;14.35;63.17;102397.44;6098107;22;106789;-43
2024/02/17 06:34:31;;;;;;;8.87;4.87;;;14.20;99.90;;;14.40;64.06;102400.84;6017219;22;126544;-45
2024/02/17 06:37:16;;;;;;;11.67;4.60;;;14.10;99.90;;;14.41;63.06;102413.22;6040795;22;98019;-40
2024/02/17 06:39:42;;;;;;;12.53;5.37;;;14.20;99.90;;;14.30;63.51;102404.63;5935715;22;103263;-43
2024/02/17 06:42:08;;;;;;;8.87;5.00;;;14.20;99.90;;;14.23;64.26;102408.34;5915459;22;105518;-42
2024/02/17 06:44:34;;;;;;;11.40;4.93;;;14.10;99.90;;;14.25;64.30;102407.41;5932876;22;100555;-43
2024/02/17 06:47:29;;;;;;;10.37;6.10;;;14.00;99.90;;;14.23;63.99;102418.97;5945815;22;127628;-42
2024/02/17 06:50:03;;;;;;;8.77;4.90;;;14.10;99.90;;;14.17;64.29;102429.69;6000814;22;101502;-40
2024/02/17 06:52:31;;;;;;;10.43;6.03;;;14.00;99.90;;;14.22;64.55;102435.78;6005777;22;97349;-43
2024/02/17 06:55:01;;;;;;;11.43;5.07;;;14.00;99.90;;;14.37;64.19;102431.91;6101464;22;98006;-43
2024/02/17 06:57:26;;;;;;;10.70;5.73;;;14.10;99.90;;;14.30;64.16;102433.81;6008895;22;104098;-43
2024/02/17 06:59:52;;;;;;;11.87;5.10;;;14.10;99.90;;;14.40;63.09;102432.72;6054198;22;114357;-44
2024/02/17 07:02:22;;;;;;;10.27;6.00;;;14.20;99.90;;;14.37;63.29;102438.09;5996629;22;113576;-45
2024/02/17 07:05:16;;;;;;;14.97;6.27;;;14.20;99.90;;;14.45;63.37;102441.47;6120658;22;102992;-44
2024/02/17 07:07:49;;;;;;;8.37;4.87;;;14.30;99.90;;;14.38;62.96;102442.50;5993842;22;101977;-43
2024/02/17 07:10:19;;;;;;;12.57;5.53;;;14.20;99.90;;;14.43;62.59;102453.88;6077673;22;97411;-39
2024/02/17 07:12:50;;;;;;;10.30;5.10;;;14.30;99.90;;;14.63;63.17;102466.72;5992269;22;97049;-44
2024/02/17 07:15:23;;;;;;;10.50;5.23;;;14.40;99.90;;;14.69;62.60;102471.00;5995590;22;103478;-41
2024/02/17 07:17:48;;;;;;;8.30;5.07;;;14.50;99.90;;;14.57;62.41;102470.38;6123282;22;104355;-46
2024/02/17 07:20:14;;;;;;;10.23;5.27;;;14.40;99.90;;;14.62;62.06;102470.28;6081842;22;101426;-37
2024/02/17 07:22:40;;;;;;;12.03;5.13;;;14.40;99.90;;;14.61;63.06;102472.97;6097090;22;97628;-40
2024/02/17 07:25:06;;;;;;;9.60;4.87;;;14.40;99.90;;;14.76;62.53;102483.25;5975742;22;102439;-39
2024/02/17 07:27:48;;;;;;;10.17;5.37;;;14.60;99.90;;;14.75;61.99;102486.78;6095517;22;99194;-44
2024/02/17 07:30:27;;;;;;;10.40;4.70;;;14.60;99.90;;;14.76;62.70;102484.13;5968513;22;101358;-41
2024/02/17 07:32:54;;;;;;;9.40;5.40;;;14.60;99.90;;;14.75;62.39;102497.41;5986459;22;97548;-41
2024/02/17 07:35:23;;;;;;;13.07;5.80;;;14.60;99.90;;;14.80;62.31;102503.50;6144416;22;98250;-44
2024/02/17 07:37:49;;;;;;;15.20;5.60;;;14.60;99.90;;;14.65;61.41;102502.09;6040666;22;104371;-43
2024/02/17 07:40:18;;;;;;;9.67;4.80;;;14.60;99.90;;;14.81;62.54;102514.09;5978260;22;117086;-44
2024/02/17 07:42:57;;;;;;;11.33;5.10;;;14.60;99.90;;;14.56;61.99;102519.09;6051831;22;97290;-44
2024/02/17 07:45:32;;;;;;;12.83;5.07;;;14.50;99.90;;;14.67;62.88;102525.97;6106935;22;101516;-44
2024/02/17 07:48:00;;;;;;;8.53;5.30;;;14.50;99.90;;;14.77;61.80;102516.88;5967756;22;99664;-42
2024/02/17 07:50:29;;;;;;;13.40;5.30;;;14.60;99.90;;;14.83;61.42;102517.59;6016925;22;110521;-42
2024/02/17 07:52:57;;;;;;;11.83;4.40;;;14.70;99.90;;;14.86;62.26;102533.44;6096768;22;100327;-47
2024/02/17 07:55:35;;;;;;;12.23;5.47;;;14.70;99.90;;;14.86;62.05;102535.22;6072507;22;104161;-42
2024/02/17 07:58:05;;;;;;;8.27;4.87;;;14.70;99.90;;;14.78;62.07;102547.84;5944208;22;98416;-45
2024/02/17 08:00:44;;;;;;;11.93;5.37;;;14.70;99.90;;;14.85;62.16;102541.47;5956826;22;100933;-45
2024/02/17 08:03:16;;;;;;;7.67;4.83;;;14.70;99.90;;;14.92;61.85;102548.38;5879186;22;97567;-40
2024/02/17 08:05:53;;;;;;;8.83;4.50;;;14.80;99.90;;;14.79;60.72;102547.81;6021357;22;103000;-39
2024/02/17 08:08:22;;;;;;;6.57;3.90;;;14.70;99.90;;;14.86;60.82;102553.84;6034998;22;103407;-43
2024/02/17 08:10:52;;;;;;;8.33;4.80;;;14.80;99.90;;;14.87;60.48;102560.88;5993391;22;97565;-42
2024/02/17 08:13:27;;;;;;;9.10;4.63;;;14.80;99.90;;;15.01;61.59;102553.47;6018045;22;115740;-38
2024/02/17 08:15:57;;;;;;;12.33;4.67;;;14.90;99.90;;;14.86;60.11;102559.16;6045328;22;114207;-43
2024/02/17 08:18:27;;;;;;;12.87;4.40;;;14.90;99.90;;;14.97;61.45;102573.06;6081946;22;107113;-45
2024/02/17 08:20:53;;;;;;;9.23;5.00;;;14.90;99.90;;;14.91;59.98;102570.56;6042863;22;98184;-41
2024/02/17 08:23:29;;;;;;;10.17;4.83;;;14.80;99.90;;;14.97;61.11;102583.69;6082227;22;97436;-43
2024/02/17 08:25:58;;;;;;;12.17;4.73;;;14.90;99.90;;;14.88;60.82;102579.44;5989969;22;103148;-43
2024/02/17 08:28:24;;;;;;;13.70;5.77;;;14.80;99.90;;;14.71;61.02;102580.75;6056188;22;99046;-37
2024/02/17 08:30:50;;;;;;;8.97;4.83;;;14.60;99.90;;;14.87;61.41;102587.47;5852798;22;119242;-44
2024/02/17 08:33:16;;;;;;;12.37;4.60;;;14.70;99.90;;;14.93;60.52;102581.16;5925452;22;115841;-43
2024/02/17 08:36:04;;;;;;;9.40;4.97;;;14.80;99.90;;;14.96;60.27;102587.25;6014721;22;120688;-43
2024/02/17 08:38:39;;;;;;;14.37;5.37;;;14.90;99.90;;;14.64;61.26;102600.41;5999760;22;100145;-37
2024/02/17 08:41:07;;;;;;;10.33;5.10;;;14.70;99.90;;;14.81;60.65;102600.91;6012267;22;97205;-44
2024/02/17 08:43:35;;;;;;;11.97;4.27;;;14.70;99.90;;;14.75;61.26;102598.38;6049157;22;110866;-42
2024/02/17 08:46:01;;;;;;;11.00;5.07;;;14.70;99.90;;;14.82;60.86;102605.31;6012739;22;106602;-43
2024/02/17 08:48:29;;;;;;;9.83;4.37;;;14.70;99.90;;;14.97;61.63;102609.38;5960414;22;128771;-43
2024/02/17 08:51:04;;;;;;;8.13;4.43;;;14.80;99.90;;;14.90;60.56;102619.31;6092277;22;99273;-36
2024/02/17 08:53:37;;;;;;;9.60;4.73;;;14.80;99.90;;;14.68;62.31;102618.88;6135039;22;97626;-43
2024/02/17 08:56:03;;;;;;;9.60;4.47;;;14.60;99.90;;;14.69;61.85;102630.38;6064200;22;100791;-46
2024/02/17 08:58:29;;;;;;;11.50;3.90;;;14.60;99.90;;;14.80;62.19;102623.06;6100504;22;101096;-40
2024/02/17 09:00:58;;;;;;;9.20;4.40;;;14.70;99.90;;;14.83;61.22;102617.69;6141355;22;97159;-46
2024/02/17 09:03:32;;;;;;;7.97;4.03;;;14.80;99.90;;;14.95;60.60;102620.06;6154137;22;113618;-43
2024/02/17 09:05:57;;;;;;;8.60;4.77;;;14.90;99.90;;;14.88;60.13;102615.78;6169847;22;104227;-36
2024/02/17 09:08:31;;;;;;;4.90;3.73;;;14.80;99.90;;;14.96;59.73;102629.78;6121762;22;98071;-38
2024/02/17 09:11:07;;;;;;;9.87;4.23;;;14.90;99.90;;;14.90;61.01;102637.91;5982510;22;97854;-35
2024/02/17 09:13:34;;;;;;;8.00;4.00;;;14.90;99.90;;;15.00;61.19;102638.56;6033319;22;97685;-46
2024/02/17 09:16:00;;;;;;;7.83;4.50;;;14.90;99.90;;;14.95;61.46;102649.28;5993325;22;100156;-43
2024/02/17 09:18:29;;;;;;;11.77;4.20;;;14.90;99.90;;;15.02;61.46;102640.25;6078701;22;123181;-48
2024/02/17 09:20:57;;;;;;;8.20;4.07;;;15.00;99.90;;;15.11;60.42;102644.50;6016611;22;121793;-44
2024/02/17 09:23:39;;;;;;;12.07;4.47;;;15.00;99.90;;;15.15;59.98;102652.34;5981231;22;101111;-41
2024/02/17 09:26:08;;;;;;;9.33;4.10;;;15.10;99.90;;;15.20;60.30;102648.75;5991794;22;102627;-38
2024/02/17 09:28:39;;;;;;;6.53;4.63;;;15.20;99.90;;;15.23;60.30;102659.28;5971594;22;99558;-49
2024/02/17 09:31:15;;;;;;;11.13;4.93;;;15.20;99.90;;;15.13;59.30;102659.50;5991223;22;116435;-44
2024/02/17 09:33:53;;;;;;;7.43;3.73;;;15.20;99.90;;;15.08;59.94;102672.03;6034301;22;97258;-40
2024/02/17 09:36:20;;;;;;;11.13;4.23;;;15.10;99.90;;;15.05;59.28;102676.56;5988692;22;103656;-38
2024/02/17 09:38:52;;;;;;;7.77;3.90;;;15.00;99.90;;;15.16;60.87;102679.81;6067712;22;98954;-44
2024/02/17 09:41:21;;;;;;;11.47;4.47;;;15.10;99.90;;;15.13;60.93;102680.75;5962271;22;97549;-43
2024/02/17 09:43:50;;;;;;;8.27;3.97;;;15.10;99.90;;;15.12;58.64;102679.03;6006615;22;108320;-47
2024/02/17 09:46:20;;;;;;;7.73;4.37;;;15.10;99.90;;;14.76;60.68;102690.47;5816841;22;101137;-46
2024/02/17 09:48:58;;;;;;;11.37;3.87;;;14.90;99.90;;;14.72;61.41;102694.06;5777904;22;99711;-44
2024/02/17 09:51:35;;;;;;;7.70;3.60;;;14.70;99.90;;;14.91;61.22;102689.25;6038547;22;98513;-51
2024/02/17 09:54:12;;;;;;;7.10;3.57;;;14.80;99.90;;;14.98;61.17;102699.72;5961749;22;103043;-43
2024/02/17 09:56:49;;;;;;;10.23;3.63;;;14.90;99.90;;;15.11;60.67;102709.16;5870486;22;103440;-44
2024/02/17 09:59:28;;;;;;;9.67;4.17;;;15.00;99.90;;;15.12;59.08;102705.59;5890023;23;98780;-48
2024/02/17 10:02:17;;;;;;;10.00;4.60;;;15.20;99.90;;;15.17;59.24;102703.69;6064008;22;97241;-47
2024/02/17 10:05:27;;;;;;;5.33;2.53;;;15.20;99.90;;;15.14;59.58;102713.53;5819256;22;103564;-45
2024/02/17 10:07:53;;;;;;;7.50;3.70;;;15.10;99.90;;;15.25;60.48;102715.97;5867499;22;104343;-43
2024/02/17 10:10:26;;;;;;;9.30;3.90;;;15.20;99.90;;;15.10;58.92;102722.50;6079312;22;98932;-43
2024/02/17 10:13:02;;;;;;;9.63;4.27;;;15.20;99.90;;;15.21;60.42;102731.13;5963543;22;97661;-41
2024/02/17 10:15:28;;;;;;;11.40;4.30;;;15.20;99.90;;;15.11;58.60;102730.44;5972577;22;97894;-45
2024/02/17 10:17:55;;;;;;;10.27;4.90;;;15.30;99.90;;;15.23;60.02;102723.09;6022173;23;98355;-44
2024/02/17 10:20:21;;;;;;;5.80;3.57;;;15.30;99.90;;;15.24;59.87;102735.50;5980750;23;99963;-43
2024/02/17 10:22:47;;;;;;;9.43;4.23;;;15.20;99.90;;;15.17;60.48;102724.97;6031103;23;111345;-45
2024/02/17 10:25:14;;;;;;;12.13;4.40;;;15.20;99.90;;;15.27;60.15;102724.78;6012492;23;97443;-44
2024/02/17 10:27:42;;;;;;;8.10;4.47;;;15.20;99.90;;;15.32;60.11;102728.19;6006521;23;99451;-45
2024/02/17 10:30:16;;;;;;;11.60;4.40;;;15.30;99.90;;;15.29;59.30;102733.59;6015039;23;98060;-45
2024/02/17 10:32:42;;;;;;;8.93;4.83;;;15.30;99.90;;;15.33;59.78;102729.94;6001825;23;106973;-45
2024/02/17 10:35:09;;;;;;;7.17;3.87;;;15.40;99.90;;;15.39;59.21;102735.13;5994724;23;98959;-44
2024/02/17 10:37:39;;;;;;;7.67;3.23;;;15.40;99.90;;;15.34;58.98;102727.28;6034345;23;98554;-44
2024/02/17 10:40:10;;;;;;;9.10;4.07;;;15.40;99.90;;;15.21;59.70;102731.13;6035378;23;98883;-43